Weather at Vervill 2 Apartments Heliports

Public forecast

Using degrees Celsius for public forecast. Weather courtesy of forecast.io.

Closest aviation weather report (METAR) to Vervill 2 Apartments Heliports

Closest report is Gimhae International Airport, 6.3 nm (11.6 km) WNW. Retrieved 2020/10/01 19:00 UTC (22 minutes ago):

RKPK 011900Z 36005KT CAVOK 15/13 Q1015

Closest aviation forecast (TAF) to Vervill 2 Apartments Heliports

Forecast is more than 6 hours old.

Closest forecast is Gimhae International Airport, 6.3 nm (11.6 km) WNW. Retrieved 2020/10/01 12:13 UTC (7 hours ago):

TAF RKPK 011100Z 0112/0218 03006KT 9999 SCT030 BKN200 TN15/0121Z TX27/0206Z BECMG 0202/0203 21008KT BECMG 0209/0210 03006KT